Time;durP1;ratioP1;P1;durP2;ratioP2;P2;SDS_P1;SDS_P2;PMS_P1;PMS_P2;Temp;Humidity;BMP_temperature;BMP_pressure;BME280_temperature;BME280_humidity;BME280_pressure;Samples;Min_cycle;Max_cycle;Signal;HPM_P1;HPM_P2
2023/04/20 00:02:01;;;;;;;1.30;0.90;;;7.40;99.90;;;;;;5094557;28;20528;-54
2023/04/20 00:04:28;;;;;;;1.90;1.00;;;7.40;99.90;;;;;;5095937;28;20516;-53
2023/04/20 00:06:57;;;;;;;2.30;1.00;;;7.40;99.90;;;;;;5095052;28;20421;-53
2023/04/20 00:09:24;;;;;;;2.45;1.00;;;7.30;99.90;;;;;;5096370;28;20523;-54
2023/04/20 00:11:53;;;;;;;2.42;1.00;;;7.20;99.90;;;;;;5096684;28;20426;-53
2023/04/20 00:14:20;;;;;;;1.50;1.10;;;7.10;99.90;;;;;;5094869;28;20429;-52
2023/04/20 00:16:49;;;;;;;1.55;0.90;;;7.10;99.90;;;;;;5095097;28;20418;-49
2023/04/20 00:19:16;;;;;;;3.10;1.00;;;7.10;99.90;;;;;;5095374;28;20532;-55
2023/04/20 00:21:44;;;;;;;1.20;0.80;;;7.10;99.90;;;;;;5096059;28;20829;-48
2023/04/20 00:24:11;;;;;;;2.00;0.90;;;7.10;99.90;;;;;;5096785;28;20500;-55
2023/04/20 00:26:38;;;;;;;1.30;1.00;;;7.10;99.90;;;;;;5095416;28;20421;-52
2023/04/20 00:29:06;;;;;;;1.40;1.00;;;7.10;99.90;;;;;;5096488;28;20428;-52
2023/04/20 00:31:33;;;;;;;1.50;0.90;;;7.10;99.90;;;;;;5095760;28;20429;-54
2023/04/20 00:34:00;;;;;;;1.90;1.10;;;7.10;99.90;;;;;;5095869;28;20730;-56
2023/04/20 00:36:28;;;;;;;1.70;1.00;;;7.10;99.90;;;;;;5096271;28;20470;-55
2023/04/20 00:38:55;;;;;;;1.40;1.00;;;7.20;99.90;;;;;;5095960;28;20833;-55
2023/04/20 00:41:22;;;;;;;1.90;1.00;;;7.10;99.90;;;;;;5095549;28;20418;-54
2023/04/20 00:43:51;;;;;;;1.50;0.90;;;7.10;99.90;;;;;;5096051;28;20414;-55
2023/04/20 00:46:19;;;;;;;1.60;1.00;;;7.10;99.90;;;;;;5095436;28;20466;-53
2023/04/20 00:48:47;;;;;;;1.40;0.90;;;7.10;99.90;;;;;;5096314;28;20422;-55
2023/04/20 00:51:15;;;;;;;1.60;1.00;;;7.20;99.90;;;;;;5095661;28;20430;-52
2023/04/20 00:53:42;;;;;;;1.70;1.00;;;7.20;99.90;;;;;;5094463;28;20421;-54
2023/04/20 00:56:10;;;;;;;2.10;1.00;;;7.00;99.90;;;;;;5093501;28;20438;-53
2023/04/20 00:58:38;;;;;;;1.40;0.90;;;7.00;99.90;;;;;;5095626;28;20422;-52
2023/04/20 01:01:06;;;;;;;1.20;0.90;;;7.00;99.90;;;;;;5095403;28;20438;-54
2023/04/20 01:03:35;;;;;;;1.80;1.10;;;6.90;99.90;;;;;;5094873;28;20422;-54
2023/04/20 01:06:02;;;;;;;3.03;1.00;;;6.90;99.90;;;;;;5095663;28;20726;-54
2023/04/20 01:08:30;;;;;;;1.40;1.00;;;6.90;99.90;;;;;;5095650;28;20464;-53
2023/04/20 01:10:57;;;;;;;1.60;1.00;;;6.80;99.90;;;;;;5095077;28;20859;-53
2023/04/20 01:13:24;;;;;;;1.45;1.00;;;6.80;99.90;;;;;;5095507;28;20471;-50
2023/04/20 01:15:51;;;;;;;1.10;0.90;;;6.80;99.90;;;;;;5096021;28;20434;-50
2023/04/20 01:18:18;;;;;;;2.30;1.10;;;6.70;99.90;;;;;;5095541;28;20475;-54
2023/04/20 01:20:47;;;;;;;1.20;0.90;;;6.60;99.90;;;;;;5095648;28;20426;-56
2023/04/20 01:23:15;;;;;;;1.23;1.00;;;6.50;99.90;;;;;;5096187;28;20833;-53
2023/04/20 01:25:42;;;;;;;1.58;1.10;;;6.50;99.90;;;;;;5095859;28;20425;-55
2023/04/20 01:28:09;;;;;;;1.30;0.90;;;6.50;99.90;;;;;;5095108;28;20421;-51
2023/04/20 01:30:37;;;;;;;1.40;0.90;;;6.50;99.90;;;;;;5095671;28;20822;-50
2023/04/20 01:33:05;;;;;;;1.20;0.90;;;6.50;99.90;;;;;;5095454;28;20413;-53
2023/04/20 01:35:32;;;;;;;1.95;0.90;;;6.40;99.90;;;;;;5094683;28;20441;-52
2023/04/20 01:38:00;;;;;;;3.40;1.10;;;6.50;99.90;;;;;;5086288;28;20426;-53
2023/04/20 01:40:28;;;;;;;1.20;0.90;;;6.60;99.90;;;;;;5074436;28;20442;-55
2023/04/20 01:42:55;;;;;;;1.20;0.90;;;6.50;99.90;;;;;;5075022;28;20423;-51
2023/04/20 01:45:22;;;;;;;1.70;1.00;;;6.40;99.90;;;;;;5079557;28;20726;-54
2023/04/20 01:47:49;;;;;;;1.40;0.93;;;6.30;99.90;;;;;;5095293;28;20418;-53
2023/04/20 01:50:18;;;;;;;1.40;0.90;;;6.30;99.90;;;;;;5094623;28;20474;-49
2023/04/20 01:52:45;;;;;;;1.52;1.00;;;6.30;99.90;;;;;;5094654;28;20417;-54
2023/04/20 01:55:12;;;;;;;1.30;1.00;;;6.30;99.90;;;;;;5094052;28;20425;-52
2023/04/20 01:57:41;;;;;;;1.40;1.00;;;6.40;99.90;;;;;;5094286;28;20429;-53
2023/04/20 02:00:09;;;;;;;1.98;1.00;;;6.40;99.90;;;;;;5094677;28;20488;-55
2023/04/20 02:02:36;;;;;;;2.65;1.00;;;6.30;99.90;;;;;;5094439;28;20433;-53
2023/04/20 02:05:03;;;;;;;1.50;1.00;;;6.20;99.90;;;;;;5095151;28;20729;-52
2023/04/20 02:07:30;;;;;;;1.40;0.90;;;6.10;99.90;;;;;;5095127;28;20860;-54
2023/04/20 02:09:57;;;;;;;1.20;0.95;;;6.00;99.90;;;;;;5094290;28;20425;-53
2023/04/20 02:12:24;;;;;;;1.40;1.00;;;6.00;99.90;;;;;;5095054;28;20425;-50
2023/04/20 02:14:53;;;;;;;1.77;1.20;;;5.80;99.90;;;;;;5094607;28;20678;-50
2023/04/20 02:17:20;;;;;;;2.20;0.90;;;5.90;99.90;;;;;;5094427;28;20421;-53
2023/04/20 02:19:47;;;;;;;1.50;1.00;;;6.00;99.90;;;;;;5093251;28;20425;-53
2023/04/20 02:22:14;;;;;;;1.50;1.10;;;6.00;99.90;;;;;;5094334;28;20516;-53
2023/04/20 02:24:42;;;;;;;1.60;1.00;;;6.00;99.90;;;;;;5093468;28;20432;-56
2023/04/20 02:27:09;;;;;;;2.30;1.02;;;6.00;99.90;;;;;;5094213;28;20417;-55
2023/04/20 02:29:36;;;;;;;2.30;1.10;;;5.90;99.90;;;;;;5094517;28;20430;-54
2023/04/20 02:32:06;;;;;;;1.55;1.00;;;5.90;99.90;;;;;;5092647;28;20420;-54
2023/04/20 02:34:33;;;;;;;2.20;1.00;;;5.80;99.90;;;;;;5093019;28;20433;-51
2023/04/20 02:37:00;;;;;;;1.60;1.10;;;5.80;99.90;;;;;;5092982;28;20430;-52
2023/04/20 02:39:27;;;;;;;1.30;1.00;;;5.80;99.90;;;;;;5093217;28;20428;-53
2023/04/20 02:41:54;;;;;;;2.10;1.10;;;5.90;99.90;;;;;;5092969;28;20421;-51
2023/04/20 02:44:21;;;;;;;1.50;0.90;;;5.90;99.90;;;;;;5093183;28;20433;-52
2023/04/20 02:46:48;;;;;;;2.10;0.90;;;5.70;99.90;;;;;;5094048;28;20418;-53
2023/04/20 02:49:17;;;;;;;2.45;1.20;;;5.70;99.90;;;;;;5093360;28;20421;-56
2023/04/20 02:51:44;;;;;;;1.60;1.20;;;5.70;99.90;;;;;;5092404;28;20418;-57
2023/04/20 02:54:11;;;;;;;1.30;1.00;;;5.80;99.90;;;;;;5093966;28;20425;-56
2023/04/20 02:56:38;;;;;;;2.30;1.10;;;5.80;99.90;;;;;;5094276;28;20768;-57
2023/04/20 02:59:05;;;;;;;1.83;1.05;;;5.80;99.90;;;;;;5094244;28;20414;-55
2023/04/20 03:01:32;;;;;;;2.53;1.30;;;5.50;99.90;;;;;;5094084;28;20425;-53
2023/04/20 03:03:59;;;;;;;1.50;1.00;;;5.40;99.90;;;;;;5093722;28;20424;-53
2023/04/20 03:06:28;;;;;;;1.52;1.13;;;5.20;99.90;;;;;;5092981;28;20414;-56
2023/04/20 03:08:55;;;;;;;3.70;1.00;;;5.10;99.90;;;;;;5093891;28;20418;-55
2023/04/20 03:11:22;;;;;;;1.40;0.93;;;5.00;99.90;;;;;;5094092;28;20500;-52
2023/04/20 03:13:49;;;;;;;2.97;1.00;;;5.20;99.90;;;;;;5094737;28;20417;-53
2023/04/20 03:16:17;;;;;;;1.50;1.02;;;5.70;99.90;;;;;;5094309;28;20934;-56
2023/04/20 03:18:44;;;;;;;2.75;1.40;;;5.90;99.90;;;;;;5094187;28;20428;-54
2023/04/20 03:21:11;;;;;;;1.60;1.02;;;5.90;99.90;;;;;;5093410;28;20426;-50
2023/04/20 03:23:39;;;;;;;1.70;1.20;;;5.80;99.90;;;;;;5092647;28;20506;-53
2023/04/20 03:26:06;;;;;;;2.40;1.20;;;5.70;99.90;;;;;;5093682;28;20817;-51
2023/04/20 03:28:33;;;;;;;3.47;1.10;;;5.70;99.90;;;;;;5093254;28;20422;-53
2023/04/20 03:31:01;;;;;;;2.60;1.30;;;5.60;99.90;;;;;;5094292;28;20817;-54
2023/04/20 03:33:28;;;;;;;2.80;1.10;;;5.60;99.90;;;;;;5093703;28;20461;-52
2023/04/20 03:35:55;;;;;;;1.75;1.10;;;5.50;99.90;;;;;;5096762;28;20441;-54
2023/04/20 03:38:22;;;;;;;2.20;1.20;;;5.40;99.90;;;;;;5095451;28;20516;-54
2023/04/20 03:40:51;;;;;;;3.55;1.80;;;5.40;99.90;;;;;;5095310;28;20750;-54
2023/04/20 03:43:18;;;;;;;1.50;1.10;;;5.40;99.90;;;;;;5096107;28;20421;-53
2023/04/20 03:45:45;;;;;;;2.10;1.55;;;5.40;99.90;;;;;;5097463;28;20433;-54
2023/04/20 03:48:12;;;;;;;1.57;1.27;;;5.50;99.90;;;;;;5097971;28;20413;-53
2023/04/20 03:50:39;;;;;;;2.08;1.20;;;5.40;99.90;;;;;;5096475;28;20422;-51
2023/04/20 03:53:06;;;;;;;2.10;1.10;;;5.30;99.90;;;;;;5097307;28;20714;-53
2023/04/20 03:55:33;;;;;;;3.10;1.20;;;5.20;99.90;;;;;;5097633;28;20426;-55
2023/04/20 03:58:02;;;;;;;2.55;1.20;;;5.10;99.90;;;;;;5097059;28;20418;-53
2023/04/20 04:00:29;;;;;;;1.90;1.30;;;5.10;99.90;;;;;;5096671;28;20431;-55
2023/04/20 04:02:56;;;;;;;2.70;1.20;;;5.00;99.90;;;;;;5096735;28;20791;-49
2023/04/20 04:05:24;;;;;;;1.97;1.23;;;5.00;99.90;;;;;;5097245;28;20494;-52
2023/04/20 04:07:51;;;;;;;3.05;1.30;;;5.00;99.90;;;;;;5096707;28;20418;-53
2023/04/20 04:10:18;;;;;;;1.92;1.30;;;5.10;99.90;;;;;;5096156;28;20527;-53
2023/04/20 04:12:45;;;;;;;2.50;1.20;;;5.20;99.90;;;;;;5095346;28;20425;-53
2023/04/20 04:15:14;;;;;;;2.10;1.30;;;5.20;99.90;;;;;;5094919;28;20856;-54
2023/04/20 04:17:41;;;;;;;3.30;1.20;;;5.10;99.90;;;;;;5094824;28;20487;-55
2023/04/20 04:20:10;;;;;;;2.20;1.20;;;4.90;99.90;;;;;;5093748;28;20437;-58
2023/04/20 04:22:37;;;;;;;2.45;1.25;;;4.80;99.90;;;;;;5092957;28;20712;-57
2023/04/20 04:25:06;;;;;;;1.50;1.10;;;4.80;99.90;;;;;;5094133;28;20836;-56
2023/04/20 04:27:34;;;;;;;1.67;1.20;;;4.90;99.90;;;;;;5094698;28;20487;-56
2023/04/20 04:30:01;;;;;;;4.97;1.40;;;5.10;99.90;;;;;;5095057;28;20508;-55
2023/04/20 04:32:33;;;;;;;1.70;1.30;;;5.20;99.90;;;;;;5095171;28;20426;-56
2023/04/20 04:35:01;;;;;;;3.00;1.40;;;5.10;99.90;;;;;;5095764;28;20479;-56
2023/04/20 04:37:28;;;;;;;2.53;1.40;;;5.10;99.90;;;;;;5096313;28;20429;-56
2023/04/20 04:39:56;;;;;;;1.75;1.20;;;5.20;99.90;;;;;;5096046;28;20776;-56
2023/04/20 04:42:24;;;;;;;2.10;1.50;;;5.30;99.90;;;;;;5096270;28;20719;-54
2023/04/20 04:44:52;;;;;;;3.92;1.30;;;5.30;99.90;;;;;;5095471;28;20429;-55
2023/04/20 04:47:20;;;;;;;2.50;1.20;;;5.30;99.90;;;;;;5094577;28;20421;-55
2023/04/20 04:49:49;;;;;;;1.70;1.20;;;5.20;99.90;;;;;;5094412;28;20930;-54
2023/04/20 04:52:16;;;;;;;2.50;1.40;;;5.00;99.90;;;;;;5096414;28;20983;-60
2023/04/20 04:54:43;;;;;;;1.90;1.30;;;4.80;99.90;;;;;;5094982;28;20430;-60
2023/04/20 04:57:10;;;;;;;3.30;1.38;;;4.70;99.90;;;;;;5095863;28;20440;-59
2023/04/20 04:59:37;;;;;;;2.00;1.20;;;4.60;99.90;;;;;;5092295;28;20678;-59
2023/04/20 05:02:04;;;;;;;2.38;1.40;;;4.70;99.90;;;;;;5092183;28;20433;-60
2023/04/20 05:04:31;;;;;;;5.30;1.70;;;4.70;99.90;;;;;;5092742;28;20974;-60
2023/04/20 05:06:59;;;;;;;2.15;1.55;;;4.80;99.90;;;;;;5092581;28;20573;-59
2023/04/20 05:09:32;;;;;;;1.77;1.40;;;4.90;99.90;;;;;;5092564;28;20432;-62
2023/04/20 05:11:59;;;;;;;2.05;1.58;;;4.90;99.90;;;;;;5092240;28;20413;-60
2023/04/20 05:14:26;;;;;;;3.13;1.50;;;5.00;99.90;;;;;;5090596;28;20459;-59
2023/04/20 05:16:53;;;;;;;2.70;1.30;;;5.10;99.90;;;;;;5091789;28;20430;-60
2023/04/20 05:19:20;;;;;;;2.10;1.85;;;5.10;99.90;;;;;;5092705;28;20864;-60
2023/04/20 05:21:47;;;;;;;2.67;1.50;;;5.10;99.90;;;;;;5091845;28;20499;-59
2023/04/20 05:24:16;;;;;;;2.20;1.40;;;5.20;99.90;;;;;;5089050;28;20437;-60
2023/04/20 05:26:43;;;;;;;2.17;1.50;;;5.20;99.90;;;;;;5090086;28;20782;-60
2023/04/20 05:29:10;;;;;;;2.80;1.60;;;5.40;99.90;;;;;;5091057;28;20409;-59
2023/04/20 05:31:37;;;;;;;1.90;1.40;;;5.30;99.90;;;;;;5090059;28;20528;-60
2023/04/20 05:34:05;;;;;;;3.13;1.48;;;5.20;99.90;;;;;;5086562;28;20754;-60
2023/04/20 05:36:32;;;;;;;1.60;1.40;;;5.60;99.90;;;;;;5077510;28;20847;-59
2023/04/20 05:39:00;;;;;;;3.70;1.70;;;6.30;99.90;;;;;;5076099;28;20502;-60
2023/04/20 05:41:28;;;;;;;2.60;1.38;;;6.30;99.90;;;;;;5082045;28;20443;-59
2023/04/20 05:43:56;;;;;;;2.70;1.42;;;6.10;99.90;;;;;;5078850;28;20455;-60
2023/04/20 05:46:23;;;;;;;2.58;1.67;;;5.90;99.90;;;;;;5088028;28;20417;-60
2023/04/20 05:48:50;;;;;;;2.75;1.50;;;5.70;99.90;;;;;;5075680;28;20655;-60
2023/04/20 05:51:17;;;;;;;3.20;1.35;;;5.70;99.90;;;;;;5091511;28;20814;-60
2023/04/20 05:53:44;;;;;;;2.90;1.50;;;5.90;99.90;;;;;;5082792;28;20414;-60
2023/04/20 05:56:12;;;;;;;2.40;1.85;;;6.50;99.90;;;;;;5074289;28;20476;-60
2023/04/20 05:58:42;;;;;;;3.28;1.60;;;6.50;99.90;;;;;;5089161;28;20500;-60
2023/04/20 06:01:10;;;;;;;2.58;1.50;;;6.40;99.90;;;;;;5082223;28;20427;-60
2023/04/20 06:03:38;;;;;;;2.30;1.80;;;6.40;99.90;;;;;;5078980;28;20485;-61
2023/04/20 06:06:06;;;;;;;1.85;1.33;;;6.40;99.90;;;;;;5075836;28;20780;-61
2023/04/20 06:08:33;;;;;;;2.00;1.40;;;6.20;99.90;;;;;;5083805;28;20959;-61
2023/04/20 06:11:01;;;;;;;3.10;1.70;;;6.10;99.90;;;;;;5073061;28;20883;-61
2023/04/20 06:13:28;;;;;;;2.10;1.90;;;5.90;99.90;;;;;;5078545;28;20514;-61
2023/04/20 06:15:57;;;;;;;2.30;1.40;;;5.90;99.90;;;;;;5080747;28;20741;-60
2023/04/20 06:18:25;;;;;;;2.10;1.50;;;6.20;99.90;;;;;;5086443;28;20526;-60
2023/04/20 06:20:52;;;;;;;3.28;2.00;;;6.00;99.90;;;;;;5066754;28;21006;-60
2023/04/20 06:23:19;;;;;;;2.50;1.40;;;5.80;99.90;;;;;;5074309;28;20880;-57
2023/04/20 06:25:46;;;;;;;2.23;1.53;;;5.70;99.90;;;;;;5072285;28;20428;-58
2023/04/20 06:28:15;;;;;;;2.95;1.90;;;6.10;99.90;;;;;;5073078;28;20430;-56
2023/04/20 06:30:43;;;;;;;3.78;1.80;;;6.50;99.90;;;;;;5084999;28;20435;-58
2023/04/20 06:33:16;;;;;;;2.97;1.80;;;6.50;99.90;;;;;;5074101;28;20478;-58
2023/04/20 06:35:43;;;;;;;2.33;1.48;;;6.30;99.90;;;;;;5086983;28;20545;-56
2023/04/20 06:38:10;;;;;;;3.85;2.05;;;6.40;99.90;;;;;;5075140;28;20935;-56
2023/04/20 06:40:38;;;;;;;3.60;1.70;;;6.30;99.90;;;;;;5086457;28;20696;-55
2023/04/20 06:43:06;;;;;;;3.78;1.40;;;6.10;99.90;;;;;;5076153;28;20421;-55
2023/04/20 06:45:33;;;;;;;3.30;1.60;;;6.40;99.90;;;;;;5077629;28;20863;-56
2023/04/20 06:48:01;;;;;;;4.38;1.83;;;6.70;99.90;;;;;;5081118;28;20956;-54
2023/04/20 06:50:30;;;;;;;2.80;1.40;;;6.80;99.90;;;;;;5070934;28;20817;-57
2023/04/20 06:52:57;;;;;;;2.95;1.60;;;6.90;99.90;;;;;;5082857;28;20423;-57
2023/04/20 06:55:24;;;;;;;2.40;1.55;;;6.90;99.90;;;;;;5076993;28;20461;-55
2023/04/20 06:57:52;;;;;;;2.40;1.70;;;7.10;99.90;;;;;;5074773;28;20626;-56
2023/04/20 07:00:20;;;;;;;2.65;1.58;;;6.80;99.90;;;;;;5084172;28;20430;-56
2023/04/20 07:02:49;;;;;;;2.88;2.00;;;6.60;99.90;;;;;;5072064;28;20849;-56
2023/04/20 07:05:17;;;;;;;3.58;2.13;;;6.80;99.90;;;;;;5083420;28;20866;-58
2023/04/20 07:07:45;;;;;;;2.30;1.75;;;6.90;99.90;;;;;;5079769;28;20421;-57
2023/04/20 07:10:14;;;;;;;3.17;1.60;;;6.90;99.90;;;;;;5073359;28;20427;-57
2023/04/20 07:12:43;;;;;;;1.80;1.60;;;7.00;99.90;;;;;;5092236;28;20466;-59
2023/04/20 07:15:11;;;;;;;2.67;1.92;;;7.40;99.90;;;;;;5092180;28;20453;-57
2023/04/20 07:17:39;;;;;;;3.58;1.80;;;7.30;99.90;;;;;;5092691;28;20440;-57
2023/04/20 07:20:08;;;;;;;3.38;1.80;;;7.30;99.90;;;;;;5090502;28;20841;-58
2023/04/20 07:22:36;;;;;;;3.08;2.10;;;7.50;99.90;;;;;;5090520;28;20708;-57
2023/04/20 07:25:07;;;;;;;2.80;1.90;;;7.40;99.90;;;;;;5090562;28;20863;-57
2023/04/20 07:27:36;;;;;;;2.40;1.70;;;7.50;99.90;;;;;;5091940;28;20414;-56
2023/04/20 07:30:05;;;;;;;2.42;1.90;;;7.80;99.90;;;;;;5089808;28;20608;-57
2023/04/20 07:32:32;;;;;;;3.70;2.08;;;8.00;99.90;;;;;;5088454;28;20437;-57
2023/04/20 07:34:59;;;;;;;3.80;1.98;;;7.90;99.90;;;;;;5090662;28;20768;-55
2023/04/20 07:37:26;;;;;;;2.78;2.00;;;7.70;99.90;;;;;;5087427;28;20455;-55
2023/04/20 07:39:53;;;;;;;3.00;1.70;;;7.80;99.90;;;;;;5087993;28;20510;-57
2023/04/20 07:42:22;;;;;;;3.08;1.80;;;8.10;99.90;;;;;;5087609;28;20414;-56
2023/04/20 07:44:49;;;;;;;3.95;2.00;;;8.10;99.90;;;;;;5089238;28;20953;-56
2023/04/20 07:47:16;;;;;;;3.70;2.30;;;8.50;99.90;;;;;;5090061;28;20721;-55
2023/04/20 07:49:44;;;;;;;2.83;2.10;;;8.70;99.90;;;;;;5090796;28;20437;-56
2023/04/20 07:52:11;;;;;;;3.60;1.80;;;8.70;99.90;;;;;;5088710;28;20426;-56
2023/04/20 07:54:39;;;;;;;3.05;1.98;;;8.90;99.90;;;;;;5087584;28;20868;-57
2023/04/20 07:57:08;;;;;;;2.95;1.88;;;9.20;99.90;;;;;;5088536;28;20825;-57
2023/04/20 07:59:36;;;;;;;2.60;1.40;;;9.60;99.90;;;;;;5087013;28;20487;-57
2023/04/20 08:02:03;;;;;;;2.50;1.70;;;9.70;99.90;;;;;;5085668;28;21023;-57
2023/04/20 08:04:30;;;;;;;3.70;2.10;;;9.90;99.90;;;;;;5088558;28;20490;-57
2023/04/20 08:06:58;;;;;;;2.40;1.80;;;9.70;99.90;;;;;;5089980;28;20764;-56
2023/04/20 08:09:25;;;;;;;4.10;2.10;;;9.50;99.90;;;;;;5090517;28;20634;-55
2023/04/20 08:11:52;;;;;;;3.10;2.22;;;9.50;99.90;;;;;;5091263;28;20418;-56
2023/04/20 08:14:19;;;;;;;3.63;2.00;;;9.50;99.90;;;;;;5089773;28;20633;-57
2023/04/20 08:16:47;;;;;;;2.72;2.00;;;9.30;99.90;;;;;;5090658;28;20439;-55
2023/04/20 08:19:15;;;;;;;4.28;2.25;;;9.10;99.90;;;;;;5088357;28;20438;-56
2023/04/20 08:21:42;;;;;;;2.22;1.45;;;9.00;99.90;;;;;;5085443;28;20742;-54
2023/04/20 08:24:10;;;;;;;3.70;2.45;;;9.30;99.90;;;;;;5091988;28;20429;-55
2023/04/20 08:26:37;;;;;;;3.08;1.80;;;9.40;99.90;;;;;;5092309;28;20433;-56
2023/04/20 08:29:05;;;;;;;3.00;1.50;;;9.30;99.90;;;;;;5090220;28;20421;-55
2023/04/20 08:31:32;;;;;;;2.75;1.70;;;9.40;99.90;;;;;;5090590;28;20422;-56
2023/04/20 08:34:00;;;;;;;2.80;1.55;;;9.30;99.90;;;;;;5089843;28;20429;-54
2023/04/20 08:36:28;;;;;;;3.67;2.00;;;9.30;99.90;;;;;;5090871;28;20465;-53
2023/04/20 08:38:57;;;;;;;3.20;1.90;;;9.40;99.90;;;;;;5088887;28;20549;-56
2023/04/20 08:41:25;;;;;;;4.70;2.20;;;9.50;99.90;;;;;;5090926;28;20418;-54
2023/04/20 08:43:52;;;;;;;5.65;4.55;;;9.30;99.90;;;;;;5090517;28;20428;-56
2023/04/20 08:46:19;;;;;;;3.53;2.30;;;9.30;99.90;;;;;;5091428;28;20646;-55
2023/04/20 08:48:48;;;;;;;3.15;2.42;;;9.00;99.90;;;;;;5092245;28;20421;-57
2023/04/20 08:51:17;;;;;;;3.60;2.28;;;8.50;99.90;;;;;;5091659;28;20429;-55
2023/04/20 08:53:45;;;;;;;3.45;2.13;;;8.30;99.90;;;;;;5090254;28;20595;-60
2023/04/20 08:56:12;;;;;;;3.07;2.20;;;8.20;99.90;;;;;;5090788;28;20453;-53
2023/04/20 08:58:41;;;;;;;3.97;2.10;;;8.50;99.90;;;;;;5090904;28;20467;-55
2023/04/20 09:01:09;;;;;;;2.85;1.90;;;8.60;99.90;;;;;;5091783;28;20432;-54
2023/04/20 09:03:37;;;;;;;2.97;2.57;;;8.60;99.90;;;;;;5091085;28;20417;-56
2023/04/20 09:06:06;;;;;;;3.35;2.22;;;8.40;99.90;;;;;;5092494;28;20714;-54
2023/04/20 09:08:38;;;;;;;2.13;1.57;;;8.20;99.90;;;;;;5090947;28;20540;-55
2023/04/20 09:11:06;;;;;;;3.50;1.90;;;8.40;99.90;;;;;;5089060;28;20432;-52
2023/04/20 09:13:34;;;;;;;2.70;2.20;;;8.70;99.90;;;;;;5089564;28;20418;-56
2023/04/20 09:16:10;;;;;;;4.87;2.37;;;8.60;99.90;;;;;;5086952;28;20438;-57
2023/04/20 09:18:39;;;;;;;3.20;2.20;;;8.60;99.90;;;;;;5086093;28;20769;-55
2023/04/20 09:21:11;;;;;;;5.03;2.50;;;8.50;99.90;;;;;;5068273;28;20428;-56
2023/04/20 09:23:41;;;;;;;3.28;2.17;;;8.30;99.90;;;;;;5067032;28;20424;-56
2023/04/20 09:26:18;;;;;;;3.10;2.30;;;8.10;99.90;;;;;;5067449;28;20859;-57
2023/04/20 09:28:46;;;;;;;3.28;2.75;;;7.80;99.90;;;;;;5067750;28;20496;-55
2023/04/20 09:31:19;;;;;;;5.40;1.92;;;7.70;99.90;;;;;;5087305;28;20438;-56
2023/04/20 09:33:56;;;;;;;6.65;2.50;;;7.70;99.90;;;;;;5088924;28;20420;-56
2023/04/20 09:36:24;;;;;;;4.07;2.80;;;7.90;99.90;;;;;;5089302;28;20457;-56
2023/04/20 09:39:06;;;;;;;3.47;2.75;;;8.00;99.90;;;;;;5088242;28;20735;-54
2023/04/20 09:41:35;;;;;;;3.88;2.45;;;8.10;99.90;;;;;;5088987;28;20509;-59
2023/04/20 09:44:04;;;;;;;3.13;2.13;;;8.30;99.90;;;;;;5087190;28;20422;-58
2023/04/20 09:46:34;;;;;;;3.60;2.00;;;8.40;99.90;;;;;;5087585;28;20433;-60
2023/04/20 09:49:03;;;;;;;2.80;1.70;;;8.60;99.90;;;;;;5087265;28;20444;-59
2023/04/20 09:51:34;;;;;;;2.50;2.15;;;8.90;99.90;;;;;;5082365;28;20426;-59
2023/04/20 09:54:04;;;;;;;5.35;2.10;;;9.00;99.90;;;;;;5088458;28;20426;-58
2023/04/20 09:56:33;;;;;;;3.33;1.80;;;9.00;99.90;;;;;;5088021;28;20418;-58
2023/04/20 09:59:02;;;;;;;2.95;1.98;;;8.80;99.90;;;;;;5087615;28;20465;-58
2023/04/20 10:01:33;;;;;;;2.42;1.75;;;8.40;99.90;;;;;;5087565;28;20440;-58
2023/04/20 10:04:02;;;;;;;3.03;2.22;;;8.30;99.90;;;;;;5088402;28;20429;-57
2023/04/20 10:06:33;;;;;;;3.70;2.03;;;8.20;99.90;;;;;;5089261;28;20794;-56
2023/04/20 10:09:04;;;;;;;3.53;2.90;;;8.20;99.90;;;;;;5088850;28;20406;-58
2023/04/20 10:11:35;;;;;;;3.80;2.30;;;8.30;99.90;;;;;;5087319;28;20422;-57
2023/04/20 10:14:15;;;;;;;4.15;2.95;;;8.40;99.90;;;;;;5088932;28;20509;-58
2023/04/20 10:16:43;;;;;;;4.05;2.13;;;8.50;99.90;;;;;;5085199;28;20422;-58
2023/04/20 10:19:11;;;;;;;3.72;2.20;;;8.50;99.90;;;;;;5084705;28;20430;-58
2023/04/20 10:21:47;;;;;;;4.13;3.15;;;8.80;99.90;;;;;;5081924;28;20488;-58
2023/04/20 10:24:16;;;;;;;2.35;1.85;;;8.60;99.90;;;;;;5078659;28;20453;-57
2023/04/20 10:26:46;;;;;;;4.20;2.90;;;8.70;99.90;;;;;;5073577;28;20479;-58
2023/04/20 10:29:24;;;;;;;3.70;3.00;;;8.70;99.90;;;;;;5083993;28;20824;-58
2023/04/20 10:31:52;;;;;;;3.27;2.13;;;8.80;99.90;;;;;;5083972;28;20421;-59
2023/04/20 10:34:31;;;;;;;4.40;2.40;;;8.80;99.90;;;;;;5086516;28;20425;-58
2023/04/20 10:37:09;;;;;;;2.88;1.90;;;9.00;99.90;;;;;;5086848;28;20548;-58
2023/04/20 10:39:43;;;;;;;3.08;2.47;;;9.40;99.90;;;;;;5083142;28;20531;-58
2023/04/20 10:42:11;;;;;;;3.80;2.22;;;9.40;99.90;;;;;;5085892;28;20433;-59
2023/04/20 10:44:48;;;;;;;2.92;2.40;;;9.20;99.90;;;;;;5090535;28;20433;-58
2023/04/20 10:47:15;;;;;;;2.88;1.80;;;9.30;99.90;;;;;;5089634;28;20900;-59
2023/04/20 10:49:43;;;;;;;2.60;1.90;;;9.30;99.90;;;;;;5090102;28;20417;-58
2023/04/20 10:52:10;;;;;;;2.45;1.40;;;9.50;99.90;;;;;;5090410;28;20410;-58
2023/04/20 10:54:39;;;;;;;2.50;1.27;;;9.70;99.90;;;;;;5090667;28;20426;-58
2023/04/20 10:57:07;;;;;;;2.75;1.40;;;9.50;99.90;;;;;;5091121;28;20562;-58
2023/04/20 10:59:36;;;;;;;2.10;1.67;;;9.70;99.90;;;;;;5091873;28;20437;-59
2023/04/20 11:02:09;;;;;;;2.40;1.80;;;9.40;99.90;;;;;;5092368;28;20429;-60
2023/04/20 11:04:36;;;;;;;3.20;1.90;;;9.20;99.90;;;;;;5093012;28;20720;-58
2023/04/20 11:07:08;;;;;;;3.25;1.38;;;9.20;99.90;;;;;;5091237;28;20506;-58
2023/04/20 11:09:37;;;;;;;2.38;1.50;;;9.50;99.90;;;;;;5091606;28;20704;-58
2023/04/20 11:12:06;;;;;;;2.80;1.50;;;9.40;99.90;;;;;;5092113;28;20422;-58
2023/04/20 11:14:36;;;;;;;2.38;1.38;;;9.40;99.90;;;;;;5081613;28;20427;-58
2023/04/20 11:17:03;;;;;;;1.83;1.20;;;8.90;99.90;;;;;;5082762;28;20508;-58
2023/04/20 11:19:32;;;;;;;2.03;1.40;;;9.30;99.90;;;;;;5074937;28;20438;-59
2023/04/20 11:22:00;;;;;;;2.60;1.30;;;9.00;99.90;;;;;;5072626;28;20430;-59
2023/04/20 11:24:29;;;;;;;2.35;1.50;;;9.30;99.90;;;;;;5071358;28;20428;-59
2023/04/20 11:26:57;;;;;;;2.85;1.50;;;9.40;99.90;;;;;;5071253;28;20485;-59
2023/04/20 11:29:30;;;;;;;2.20;1.60;;;9.40;99.90;;;;;;5078673;28;20809;-60
2023/04/20 11:31:57;;;;;;;3.03;2.10;;;9.30;99.90;;;;;;5084486;28;20433;-60
2023/04/20 11:34:24;;;;;;;3.60;2.10;;;9.20;99.90;;;;;;5089098;28;20426;-59
2023/04/20 11:36:51;;;;;;;2.58;1.77;;;8.90;99.90;;;;;;5087339;28;20453;-60
2023/04/20 11:39:25;;;;;;;2.35;1.50;;;8.80;99.90;;;;;;5080132;28;20524;-60
2023/04/20 11:41:53;;;;;;;2.85;1.80;;;8.60;99.90;;;;;;5073248;28;20427;-59
2023/04/20 11:44:21;;;;;;;3.13;2.10;;;8.50;99.90;;;;;;5068741;28;20425;-59
2023/04/20 11:46:52;;;;;;;3.10;2.13;;;8.40;99.90;;;;;;5086977;28;20547;-59
2023/04/20 11:49:19;;;;;;;2.80;1.73;;;8.30;99.90;;;;;;5090917;28;20787;-59
2023/04/20 11:51:46;;;;;;;3.38;1.85;;;8.50;99.90;;;;;;5090459;28;20709;-59
2023/04/20 11:54:14;;;;;;;2.65;1.60;;;8.60;99.90;;;;;;5090845;28;20837;-60
2023/04/20 11:56:43;;;;;;;4.68;2.50;;;8.80;99.90;;;;;;5091759;28;20513;-59
2023/04/20 11:59:10;;;;;;;2.97;1.63;;;9.00;99.90;;;;;;5087645;28;20428;-59
2023/04/20 12:01:38;;;;;;;2.60;1.90;;;9.50;99.90;;;;;;5090640;28;20535;-60
2023/04/20 12:04:07;;;;;;;2.30;1.70;;;9.10;99.90;;;;;;5090767;28;20464;-59
2023/04/20 12:06:34;;;;;;;3.60;2.20;;;9.20;99.90;;;;;;5089415;28;20504;-59
2023/04/20 12:09:01;;;;;;;3.10;1.90;;;9.10;99.90;;;;;;5089128;28;20413;-60
2023/04/20 12:11:28;;;;;;;3.20;2.17;;;9.00;99.90;;;;;;5087347;28;20410;-59
2023/04/20 12:13:55;;;;;;;3.53;2.63;;;9.00;99.90;;;;;;5089060;28;20418;-58
2023/04/20 12:16:22;;;;;;;2.75;1.92;;;9.00;99.90;;;;;;5090685;28;20429;-59
2023/04/20 12:18:49;;;;;;;2.72;2.03;;;8.90;99.90;;;;;;5088648;28;20429;-59
2023/04/20 12:21:18;;;;;;;4.13;2.63;;;8.80;99.90;;;;;;5087644;28;20430;-58
2023/04/20 12:23:45;;;;;;;4.40;2.83;;;8.70;99.90;;;;;;5088701;28;20882;-58
2023/04/20 12:26:12;;;;;;;3.77;2.90;;;8.70;99.90;;;;;;5089643;28;20434;-57
2023/04/20 12:28:39;;;;;;;4.50;2.85;;;8.80;99.90;;;;;;5091841;28;20837;-58
2023/04/20 12:31:07;;;;;;;4.88;2.45;;;8.90;99.90;;;;;;5090587;28;20426;-58
2023/04/20 12:33:34;;;;;;;5.80;3.50;;;8.90;99.90;;;;;;5089522;28;20418;-59
2023/04/20 12:36:01;;;;;;;4.53;2.83;;;8.90;99.90;;;;;;5090645;28;20444;-59
2023/04/20 12:38:29;;;;;;;3.40;2.60;;;8.80;99.90;;;;;;5090933;28;21000;-60
2023/04/20 12:40:56;;;;;;;3.30;2.60;;;8.70;99.90;;;;;;5090856;28;20487;-60
2023/04/20 12:43:24;;;;;;;3.28;2.30;;;8.70;99.90;;;;;;5089157;28;20425;-59
2023/04/20 12:45:51;;;;;;;3.20;1.98;;;8.70;99.90;;;;;;5091294;28;20510;-59
2023/04/20 12:48:19;;;;;;;3.70;2.25;;;8.70;99.90;;;;;;5088099;28;20709;-60
2023/04/20 12:50:47;;;;;;;2.20;1.80;;;8.80;99.90;;;;;;5086256;28;20500;-60
2023/04/20 12:53:15;;;;;;;2.33;1.50;;;8.80;99.90;;;;;;5092023;28;20841;-60
2023/04/20 12:55:44;;;;;;;2.70;1.60;;;8.90;99.90;;;;;;5091012;28;20426;-59
2023/04/20 12:58:11;;;;;;;3.20;1.60;;;9.00;99.90;;;;;;5089079;28;20488;-59
2023/04/20 13:00:40;;;;;;;2.90;1.80;;;9.10;99.90;;;;;;5090118;28;20484;-60
2023/04/20 13:03:08;;;;;;;2.88;2.00;;;9.00;99.90;;;;;;5087709;28;20421;-60